createdAt,value
2024-02-05T00:00:20.867Z,97.53
2024-02-05T00:01:20.948Z,97.42
2024-02-05T00:02:20.875Z,97.42
2024-02-05T00:03:20.895Z,97.33
2024-02-05T00:04:20.977Z,97.33
2024-02-05T00:05:20.847Z,97.22
2024-02-05T00:06:20.911Z,97.22
2024-02-05T00:07:20.988Z,97.22
2024-02-05T00:08:20.854Z,97.22
2024-02-05T00:09:20.752Z,97.22
2024-02-05T00:10:20.740Z,97.22
2024-02-05T00:11:20.719Z,97.22
2024-02-05T00:12:20.719Z,97.22
2024-02-05T00:13:21.749Z,97.12
2024-02-05T00:14:20.685Z,97.12
2024-02-05T00:15:20.728Z,97.12
2024-02-05T00:16:20.850Z,97.22
2024-02-05T00:17:20.684Z,97.22
2024-02-05T00:18:20.982Z,97.33
2024-02-05T00:19:21.732Z,97.33
2024-02-05T00:20:20.601Z,97.42
2024-02-05T00:21:20.604Z,97.42
2024-02-05T00:22:20.625Z,97.33
2024-02-05T00:23:20.596Z,97.42
2024-02-05T00:24:20.607Z,97.42
2024-02-05T00:25:20.535Z,97.22
2024-02-05T00:26:20.653Z,97.12
2024-02-05T00:27:20.517Z,97.02
2024-02-05T00:28:20.555Z,97.02
2024-02-05T00:29:20.547Z,97.02
2024-02-05T00:30:20.491Z,97.02
2024-02-05T00:31:20.595Z,97.02
2024-02-05T00:32:20.455Z,97.02
2024-02-05T00:33:20.453Z,97.12
2024-02-05T00:34:20.561Z,97.12
2024-02-05T00:35:20.418Z,97.02
2024-02-05T00:36:20.506Z,97.02
2024-02-05T00:37:20.444Z,97.12
2024-02-05T00:38:20.400Z,97.02
2024-02-05T00:39:20.363Z,97.02
2024-02-05T00:40:20.355Z,97.02
2024-02-05T00:41:20.356Z,97.12
2024-02-05T00:42:20.368Z,97.22
2024-02-05T00:43:20.460Z,97.22
2024-02-05T00:44:20.272Z,97.33
2024-02-05T00:45:20.344Z,97.22
2024-02-05T00:46:20.326Z,97.22
2024-02-05T00:47:20.250Z,97.12
2024-02-05T00:48:20.343Z,97.02
2024-02-05T00:49:20.343Z,97.02
2024-02-05T00:50:20.224Z,96.92
2024-02-05T00:51:20.241Z,96.92
2024-02-05T00:52:20.307Z,97.02
2024-02-05T00:53:20.191Z,97.02
2024-02-05T00:54:20.192Z,97.02
2024-02-05T00:55:20.271Z,97.02
2024-02-05T00:56:20.182Z,96.92
2024-02-05T00:57:20.191Z,96.81
2024-02-05T00:58:20.288Z,96.81
2024-02-05T00:59:20.093Z,96.92
2024-02-05T01:00:20.116Z,96.92
2024-02-05T01:01:20.339Z,96.92
2024-02-05T01:02:20.078Z,96.92
2024-02-05T01:03:20.120Z,96.81
2024-02-05T01:04:20.173Z,96.61
2024-02-05T01:05:20.329Z,96.51
2024-02-05T01:06:30.192Z,96.61
2024-02-05T01:07:20.231Z,96.51
2024-02-05T01:08:20.089Z,96.41
2024-02-05T01:09:20.049Z,96.30
2024-02-05T01:10:20.015Z,96.20
2024-02-05T01:11:20.054Z,96.10
2024-02-05T01:12:20.115Z,96.20
2024-02-05T01:13:20.049Z,96.00
2024-02-05T01:14:19.917Z,96.00
2024-02-05T01:15:19.896Z,96.00
2024-02-05T01:16:20.049Z,96.10
2024-02-05T01:17:20.057Z,96.10
2024-02-05T01:18:20.511Z,96.10
2024-02-05T01:19:22.550Z,96.10
2024-02-05T01:20:20.061Z,96.10
2024-02-05T01:21:19.962Z,96.10
2024-02-05T01:22:19.843Z,96.00
2024-02-05T01:23:19.834Z,96.00
2024-02-05T01:24:19.794Z,96.00
2024-02-05T01:25:19.925Z,95.89
2024-02-05T01:26:19.747Z,96.00
2024-02-05T01:27:19.781Z,95.89
2024-02-05T01:28:19.925Z,95.89
2024-02-05T01:29:19.777Z,95.89
2024-02-05T01:30:19.876Z,96.10
2024-02-05T01:31:19.935Z,96.20
2024-02-05T01:32:20.040Z,96.00
2024-02-05T01:33:19.809Z,96.10
2024-02-05T01:34:19.832Z,96.00
2024-02-05T01:35:19.643Z,96.00
2024-02-05T01:36:19.620Z,96.00
2024-02-05T01:37:19.690Z,96.00
2024-02-05T01:38:19.668Z,96.00
2024-02-05T01:39:19.736Z,96.00
2024-02-05T01:40:19.805Z,96.00
2024-02-05T01:41:19.637Z,95.79
2024-02-05T01:42:19.560Z,95.89
2024-02-05T01:43:19.677Z,95.89
2024-02-05T01:44:19.597Z,95.89
2024-02-05T01:45:19.542Z,96.00
2024-02-05T01:46:19.627Z,95.89
2024-02-05T01:47:19.588Z,96.00
2024-02-05T01:48:19.737Z,96.10
2024-02-05T01:49:19.722Z,96.20
2024-02-05T01:50:20.372Z,96.00
2024-02-05T01:51:20.223Z,95.89
2024-02-05T01:52:19.572Z,95.59
2024-02-05T01:53:19.589Z,95.59
2024-02-05T01:54:19.436Z,95.69
2024-02-05T01:55:19.487Z,95.69
2024-02-05T01:56:19.455Z,95.69
2024-02-05T01:57:19.406Z,95.69
2024-02-05T01:58:19.448Z,95.69
2024-02-05T01:59:19.375Z,95.69
2024-02-05T02:00:19.307Z,95.69
2024-02-05T02:01:19.390Z,95.59
2024-02-05T02:02:19.297Z,95.69
2024-02-05T02:03:19.296Z,95.79
2024-02-05T02:04:19.388Z,95.79
2024-02-05T02:05:19.511Z,95.89
2024-02-05T02:06:19.291Z,95.89
2024-02-05T02:07:19.361Z,96.00
2024-02-05T02:08:19.434Z,96.00
2024-02-05T02:09:19.452Z,95.89
2024-02-05T02:10:19.370Z,95.79
2024-02-05T02:11:19.307Z,95.69
2024-02-05T02:12:19.278Z,95.79
2024-02-05T02:13:20.246Z,95.89
2024-02-05T02:14:19.191Z,95.89
2024-02-05T02:15:19.188Z,95.89
2024-02-05T02:16:19.170Z,95.89
2024-02-05T02:17:19.221Z,95.79
2024-02-05T02:18:19.228Z,95.89
2024-02-05T02:19:19.203Z,95.79
2024-02-05T02:20:19.186Z,95.69
2024-02-05T02:21:19.057Z,95.69
2024-02-05T02:22:19.189Z,95.69
2024-02-05T02:23:19.080Z,95.79
2024-02-05T02:24:19.127Z,95.89
2024-02-05T02:25:19.268Z,95.94
2024-02-05T02:26:19.058Z,95.73
2024-02-05T02:27:19.050Z,95.89
2024-02-05T02:28:19.395Z,96.04
2024-02-05T02:29:19.061Z,96.04
2024-02-05T02:30:19.042Z,95.94
2024-02-05T02:31:19.020Z,95.94
2024-02-05T02:32:19.068Z,96.04
2024-02-05T02:33:19.013Z,95.94
2024-02-05T02:34:19.199Z,96.04
2024-02-05T02:35:18.971Z,96.04
2024-02-05T02:36:18.933Z,96.14
2024-02-05T02:37:19.048Z,96.14
2024-02-05T02:38:18.937Z,96.14
2024-02-05T02:39:19.014Z,96.04
2024-02-05T02:40:18.966Z,95.94
2024-02-05T02:41:18.830Z,96.04
2024-02-05T02:42:18.908Z,95.73
2024-02-05T02:43:18.846Z,95.53
2024-02-05T02:44:18.832Z,95.63
2024-02-05T02:45:18.864Z,95.63
2024-02-05T02:46:18.859Z,95.63
2024-02-05T02:47:18.770Z,95.53
2024-02-05T02:48:18.815Z,95.53
2024-02-05T02:49:18.790Z,95.63
2024-02-05T02:50:18.670Z,95.73
2024-02-05T02:51:18.882Z,95.84
2024-02-05T02:52:18.759Z,95.73
2024-02-05T02:53:18.627Z,95.84
2024-02-05T02:54:18.677Z,95.94
2024-02-05T02:55:18.834Z,95.84
2024-02-05T02:56:18.586Z,95.73
2024-02-05T02:57:18.616Z,95.63
2024-02-05T02:58:18.741Z,95.53
2024-02-05T02:59:18.566Z,95.43
2024-02-05T03:00:18.671Z,95.32
2024-02-05T03:01:18.590Z,95.43
2024-02-05T03:02:18.570Z,95.22
2024-02-05T03:03:18.503Z,95.32
2024-02-05T03:04:18.734Z,95.43
2024-02-05T03:05:25.906Z,95.32
2024-02-05T03:06:18.916Z,95.22
2024-02-05T03:07:18.511Z,95.22
2024-02-05T03:08:18.456Z,95.12
2024-02-05T03:09:18.435Z,95.22
2024-02-05T03:10:18.449Z,95.32
2024-02-05T03:11:18.494Z,95.22
2024-02-05T03:12:18.437Z,95.22
2024-02-05T03:13:19.570Z,95.32
2024-02-05T03:14:18.431Z,95.22
2024-02-05T03:15:18.418Z,95.12
2024-02-05T03:16:18.809Z,95.02
2024-02-05T03:17:18.419Z,95.12
2024-02-05T03:18:18.568Z,95.12
2024-02-05T03:19:18.497Z,95.12
2024-02-05T03:20:22.116Z,95.02
2024-02-05T03:21:19.092Z,94.81
2024-02-05T03:22:18.417Z,95.02
2024-02-05T03:23:18.571Z,95.02
2024-02-05T03:24:26.959Z,94.81
2024-02-05T03:25:29.229Z,94.92
2024-02-05T03:26:28.097Z,94.81
2024-02-05T03:27:28.296Z,94.92
2024-02-05T03:28:18.766Z,94.92
2024-02-05T03:29:30.987Z,94.81
2024-02-05T03:30:27.811Z,94.92
2024-02-05T03:31:29.132Z,94.92
2024-02-05T03:32:18.212Z,94.92
2024-02-05T03:33:18.233Z,94.92
2024-02-05T03:34:18.429Z,94.92
2024-02-05T03:35:18.212Z,94.92
2024-02-05T03:36:18.210Z,94.71
2024-02-05T03:37:18.217Z,94.81
2024-02-05T03:38:18.132Z,94.92
2024-02-05T03:39:18.232Z,94.81
2024-02-05T03:40:18.159Z,94.81
2024-02-05T03:41:18.010Z,94.81
2024-02-05T03:42:18.068Z,94.71
2024-02-05T03:43:18.243Z,94.51
2024-02-05T03:44:18.018Z,94.60
2024-02-05T03:45:17.983Z,94.71
2024-02-05T03:46:18.004Z,94.81
2024-02-05T03:47:18.070Z,94.71
2024-02-05T03:48:18.007Z,94.71
2024-02-05T03:49:18.157Z,94.71
2024-02-05T03:50:18.461Z,94.71
2024-02-05T03:51:18.004Z,94.40
2024-02-05T03:52:18.057Z,94.51
2024-02-05T03:53:18.059Z,94.51
2024-02-05T03:54:17.887Z,94.60
2024-02-05T03:55:17.955Z,94.60
2024-02-05T03:56:17.919Z,94.51
2024-02-05T03:57:17.964Z,94.60
2024-02-05T03:58:18.048Z,94.51
2024-02-05T03:59:17.835Z,94.51
2024-02-05T04:00:17.792Z,94.40
2024-02-05T04:01:18.007Z,94.30
2024-02-05T04:02:17.801Z,94.30
2024-02-05T04:03:17.757Z,94.30
2024-02-05T04:04:18.305Z,94.30
2024-02-05T04:05:17.770Z,94.10
2024-02-05T04:06:17.817Z,94.10
2024-02-05T04:07:17.780Z,94.30
2024-02-05T04:08:17.777Z,94.30
2024-02-05T04:09:17.716Z,94.30
2024-02-05T04:10:18.874Z,94.20
2024-02-05T04:11:17.977Z,94.20
2024-02-05T04:12:17.733Z,94.20
2024-02-05T04:13:17.668Z,94.20
2024-02-05T04:14:18.152Z,94.40
2024-02-05T04:15:17.767Z,94.51
2024-02-05T04:16:17.861Z,94.30
2024-02-05T04:17:17.574Z,93.99
2024-02-05T04:18:17.634Z,94.20
2024-02-05T04:19:17.689Z,94.40
2024-02-05T04:20:17.613Z,94.10
2024-02-05T04:21:17.535Z,94.10
2024-02-05T04:22:17.707Z,94.20
2024-02-05T04:23:17.533Z,94.30
2024-02-05T04:24:17.522Z,94.20
2024-02-05T04:25:17.778Z,94.34
2024-02-05T04:26:17.486Z,94.30
2024-02-05T04:27:17.524Z,94.30
2024-02-05T04:28:17.608Z,94.24
2024-02-05T04:29:17.460Z,94.24
2024-02-05T04:30:17.913Z,94.30
2024-02-05T04:31:18.075Z,94.34
2024-02-05T04:32:17.369Z,94.45
2024-02-05T04:33:17.425Z,94.45
2024-02-05T04:34:17.495Z,94.24
2024-02-05T04:35:17.398Z,94.34
2024-02-05T04:36:17.642Z,94.24
2024-02-05T04:37:17.426Z,94.24
2024-02-05T04:38:17.469Z,94.34
2024-02-05T04:39:17.588Z,94.34
2024-02-05T04:40:17.568Z,94.34
2024-02-05T04:41:17.286Z,94.45
2024-02-05T04:42:17.691Z,94.34
2024-02-05T04:43:17.322Z,94.24
2024-02-05T04:44:17.571Z,94.24
2024-02-05T04:45:17.240Z,94.24
2024-02-05T04:46:17.400Z,94.14
2024-02-05T04:47:17.282Z,94.14
2024-02-05T04:48:17.205Z,94.24
2024-02-05T04:49:17.328Z,94.34
2024-02-05T04:50:17.501Z,94.34
2024-02-05T04:51:17.377Z,94.24
2024-02-05T04:52:17.236Z,94.14
2024-02-05T04:53:17.295Z,94.24
2024-02-05T04:54:17.276Z,94.24
2024-02-05T04:55:17.208Z,94.04
2024-02-05T04:56:17.112Z,94.14
2024-02-05T04:57:17.117Z,94.14
2024-02-05T04:58:17.206Z,94.04
2024-02-05T04:59:17.174Z,94.04
2024-02-05T05:00:17.383Z,93.93
2024-02-05T05:01:17.092Z,94.04
2024-02-05T05:02:17.205Z,94.04
2024-02-05T05:03:16.944Z,93.93
2024-02-05T05:04:17.950Z,93.84
2024-02-05T05:05:17.019Z,93.73
2024-02-05T05:06:17.006Z,94.04
2024-02-05T05:07:17.109Z,94.04
2024-02-05T05:08:17.011Z,93.84
2024-02-05T05:09:17.063Z,93.93
2024-02-05T05:10:17.159Z,94.04
2024-02-05T05:11:18.144Z,93.73
2024-02-05T05:12:16.919Z,93.73
2024-02-05T05:13:17.159Z,93.84
2024-02-05T05:14:16.824Z,93.84
2024-02-05T05:15:16.856Z,93.73
2024-02-05T05:16:16.834Z,93.63
2024-02-05T05:17:16.798Z,93.63
2024-02-05T05:18:16.822Z,93.84
2024-02-05T05:19:16.877Z,93.63
2024-02-05T05:20:16.850Z,93.43
2024-02-05T05:21:16.829Z,93.32
2024-02-05T05:22:16.813Z,93.43
2024-02-05T05:23:16.691Z,93.43
2024-02-05T05:24:16.701Z,93.43
2024-02-05T05:25:16.822Z,93.43
2024-02-05T05:26:16.645Z,93.63
2024-02-05T05:27:16.734Z,93.63
2024-02-05T05:28:16.827Z,93.43
2024-02-05T05:29:16.654Z,93.52
2024-02-05T05:30:16.661Z,93.22
2024-02-05T05:31:16.683Z,93.32
2024-02-05T05:32:16.652Z,93.32
2024-02-05T05:33:18.022Z,93.32
2024-02-05T05:34:16.765Z,93.22
2024-02-05T05:35:16.560Z,93.43
2024-02-05T05:36:16.519Z,93.52
2024-02-05T05:37:16.621Z,93.22
2024-02-05T05:38:16.665Z,93.22
2024-02-05T05:39:16.541Z,93.22
2024-02-05T05:40:17.204Z,93.22
2024-02-05T05:41:16.558Z,93.12
2024-02-05T05:42:16.538Z,93.01
2024-02-05T05:43:16.599Z,92.91
2024-02-05T05:44:16.614Z,93.01
2024-02-05T05:45:16.525Z,93.22
2024-02-05T05:46:16.472Z,93.22
2024-02-05T05:47:16.422Z,93.32
2024-02-05T05:48:16.417Z,93.22
2024-02-05T05:49:16.511Z,93.12
2024-02-05T05:50:16.502Z,93.12
2024-02-05T05:51:16.331Z,93.32
2024-02-05T05:52:16.455Z,93.12
2024-02-05T05:53:16.390Z,92.91
2024-02-05T05:54:16.502Z,92.81
2024-02-05T05:55:16.464Z,92.40
2024-02-05T05:56:16.566Z,92.71
2024-02-05T05:57:16.468Z,92.60
2024-02-05T05:58:16.411Z,92.60
2024-02-05T05:59:16.247Z,92.60
2024-02-05T06:00:16.219Z,92.60
2024-02-05T06:01:16.329Z,92.50
2024-02-05T06:02:16.278Z,92.30
2024-02-05T06:03:16.235Z,92.19
2024-02-05T06:04:16.364Z,92.30
2024-02-05T06:05:16.347Z,92.19
2024-02-05T06:06:16.162Z,91.99
2024-02-05T06:07:16.184Z,91.99
2024-02-05T06:08:16.215Z,91.89
2024-02-05T06:09:16.225Z,91.78
2024-02-05T06:10:16.259Z,92.10
2024-02-05T06:11:16.223Z,92.19
2024-02-05T06:12:16.152Z,91.99
2024-02-05T06:13:16.108Z,91.69
2024-02-05T06:14:16.226Z,91.58
2024-02-05T06:15:16.324Z,91.69
2024-02-05T06:16:16.103Z,91.69
2024-02-05T06:17:15.984Z,91.48
2024-02-05T06:18:15.985Z,91.58
2024-02-05T06:19:16.081Z,91.69
2024-02-05T06:20:18.062Z,91.69
2024-02-05T06:21:16.196Z,91.69
2024-02-05T06:22:16.476Z,91.58
2024-02-05T06:23:15.949Z,91.48
2024-02-05T06:24:15.889Z,91.48
2024-02-05T06:25:16.043Z,91.58
2024-02-05T06:26:16.204Z,91.58
2024-02-05T06:27:15.961Z,91.38
2024-02-05T06:28:15.974Z,91.38
2024-02-05T06:29:15.949Z,91.38
2024-02-05T06:30:15.879Z,91.38
2024-02-05T06:31:15.963Z,91.17
2024-02-05T06:32:15.809Z,91.38
2024-02-05T06:33:15.837Z,91.17
2024-02-05T06:34:15.892Z,91.27
2024-02-05T06:35:15.987Z,91.17
2024-02-05T06:36:15.742Z,91.38
2024-02-05T06:37:15.909Z,91.38
2024-02-05T06:38:15.836Z,91.38
2024-02-05T06:39:15.733Z,91.27
2024-02-05T06:40:15.843Z,91.38
2024-02-05T06:41:15.688Z,91.48
2024-02-05T06:42:15.863Z,91.52
2024-02-05T06:43:16.692Z,91.42
2024-02-05T06:44:18.272Z,91.22
2024-02-05T06:45:19.956Z,91.01
2024-02-05T06:46:15.997Z,90.81
2024-02-05T06:47:15.614Z,91.01
2024-02-05T06:48:15.744Z,90.81
2024-02-05T06:49:15.735Z,90.70
2024-02-05T06:50:15.612Z,90.39
2024-02-05T06:51:15.963Z,90.39
2024-02-05T06:52:15.826Z,89.98
2024-02-05T06:53:15.719Z,90.30
2024-02-05T06:54:15.558Z,90.30
2024-02-05T06:55:15.739Z,89.89
2024-02-05T06:56:15.547Z,89.98
2024-02-05T06:57:15.618Z,89.98
2024-02-05T06:58:15.599Z,90.09
2024-02-05T06:59:15.442Z,90.30
2024-02-05T07:00:15.604Z,90.19
2024-02-05T07:01:15.697Z,90.09
2024-02-05T07:02:19.546Z,89.98
2024-02-05T07:03:18.218Z,90.19
2024-02-05T07:04:15.446Z,90.09
2024-02-05T07:05:15.593Z,89.89
2024-02-05T07:06:15.420Z,89.98
2024-02-05T07:07:15.443Z,90.09
2024-02-05T07:08:15.326Z,90.09
2024-02-05T07:09:15.329Z,90.19
2024-02-05T07:10:15.444Z,90.19
2024-02-05T07:11:15.303Z,90.39
2024-02-05T07:12:15.391Z,90.39
2024-02-05T07:13:16.436Z,90.30
2024-02-05T07:14:15.308Z,90.30
2024-02-05T07:15:15.258Z,90.30
2024-02-05T07:16:15.327Z,90.19
2024-02-05T07:17:15.226Z,90.09
2024-02-05T07:18:15.353Z,90.50
2024-02-05T07:19:15.256Z,90.50
2024-02-05T07:20:15.328Z,90.50
2024-02-05T07:21:15.195Z,90.30
2024-02-05T07:22:15.200Z,90.30
2024-02-05T07:23:15.269Z,90.50
2024-02-05T07:24:15.199Z,90.19
2024-02-05T07:25:15.244Z,90.19
2024-02-05T07:26:15.144Z,90.19
2024-02-05T07:27:15.132Z,90.60
2024-02-05T07:28:15.087Z,90.70
2024-02-05T07:29:15.167Z,90.91
2024-02-05T07:30:15.056Z,91.01
2024-02-05T07:31:15.059Z,90.81
2024-02-05T07:32:15.055Z,90.39
2024-02-05T07:33:15.100Z,90.60
2024-02-05T07:34:15.047Z,90.81
2024-02-05T07:35:15.073Z,90.70
2024-02-05T07:36:14.988Z,90.81
2024-02-05T07:37:15.048Z,90.91
2024-02-05T07:38:15.015Z,91.01
2024-02-05T07:39:14.956Z,90.60
2024-02-05T07:40:15.037Z,90.60
2024-02-05T07:41:14.954Z,90.50
2024-02-05T07:42:14.956Z,90.50
2024-02-05T07:43:14.962Z,90.39
2024-02-05T07:44:14.866Z,90.39
2024-02-05T07:45:14.929Z,90.39
2024-02-05T07:46:14.858Z,90.39
2024-02-05T07:47:14.828Z,90.19
2024-02-05T07:48:14.989Z,90.30
2024-02-05T07:49:14.997Z,90.50
2024-02-05T07:50:14.850Z,90.70
2024-02-05T07:51:14.795Z,90.70
2024-02-05T07:52:14.798Z,90.39
2024-02-05T07:53:14.886Z,90.50
2024-02-05T07:54:14.762Z,90.60
2024-02-05T07:55:14.784Z,90.81
2024-02-05T07:56:14.760Z,90.81
2024-02-05T07:57:14.693Z,90.70
2024-02-05T07:58:14.812Z,90.70
2024-02-05T07:59:14.713Z,90.39
2024-02-05T08:00:14.747Z,90.19
2024-02-05T08:01:14.750Z,89.89
2024-02-05T08:02:14.790Z,89.89
2024-02-05T08:03:15.191Z,90.19
2024-02-05T08:04:14.759Z,90.19
2024-02-05T08:05:14.771Z,90.09
2024-02-05T08:06:14.697Z,90.30
2024-02-05T08:07:14.682Z,90.39
2024-02-05T08:08:14.853Z,90.19
2024-02-05T08:09:14.703Z,90.39
2024-02-05T08:10:15.003Z,90.50
2024-02-05T08:11:15.071Z,90.39
2024-02-05T08:12:14.934Z,90.39
2024-02-05T08:13:14.656Z,90.39
2024-02-05T08:14:14.627Z,89.98
2024-02-05T08:15:14.513Z,89.98
2024-02-05T08:16:14.876Z,90.39
2024-02-05T08:17:14.465Z,90.30
2024-02-05T08:18:14.582Z,90.50
2024-02-05T08:19:14.773Z,90.30
2024-02-05T08:20:14.866Z,90.30
2024-02-05T08:21:14.682Z,90.39
2024-02-05T08:22:15.131Z,89.89
2024-02-05T08:23:15.786Z,89.68
2024-02-05T08:24:14.699Z,89.58
2024-02-05T08:25:14.943Z,89.37
2024-02-05T08:26:15.789Z,89.27
2024-02-05T08:27:35.653Z,89.37
2024-02-05T08:28:14.630Z,89.27
2024-02-05T08:29:14.738Z,89.17
2024-02-05T08:30:14.483Z,88.96
2024-02-05T08:31:14.341Z,88.96
2024-02-05T08:32:14.234Z,89.06
2024-02-05T08:33:14.297Z,89.47
2024-02-05T08:34:14.346Z,89.37
2024-02-05T08:35:14.215Z,89.17
2024-02-05T08:36:14.304Z,89.17
2024-02-05T08:37:14.371Z,89.17
2024-02-05T08:38:14.256Z,89.27
2024-02-05T08:39:14.230Z,89.37
2024-02-05T08:40:26.807Z,89.58
2024-02-05T08:41:14.231Z,89.58
2024-02-05T08:43:38.936Z,89.78
2024-02-05T08:44:36.128Z,89.78
2024-02-05T08:45:36.520Z,89.58
2024-02-05T08:46:36.229Z,89.37
2024-02-05T08:47:36.107Z,89.06
2024-02-05T08:48:36.059Z,89.06
2024-02-05T08:49:36.150Z,89.06
2024-02-05T08:50:36.039Z,89.37
2024-02-05T08:51:35.969Z,89.37
2024-02-05T08:52:35.982Z,89.53
2024-02-05T08:53:35.990Z,89.47
2024-02-05T08:54:35.939Z,89.43
2024-02-05T08:55:35.998Z,89.53
2024-02-05T08:56:35.924Z,89.74
2024-02-05T08:57:35.954Z,89.74
2024-02-05T08:58:35.898Z,89.53
2024-02-05T08:59:35.906Z,88.41
2024-02-05T09:00:35.899Z,88.62
2024-02-05T09:01:35.936Z,88.92
2024-02-05T09:02:35.933Z,88.62
2024-02-05T09:03:35.834Z,88.82
2024-02-05T09:04:36.090Z,88.62
2024-02-05T09:05:41.362Z,88.62
2024-02-05T09:06:36.865Z,88.92
2024-02-05T09:07:35.790Z,88.51
2024-02-05T09:08:35.745Z,88.41
2024-02-05T09:09:35.720Z,88.71
2024-02-05T09:10:35.789Z,88.51
2024-02-05T09:11:40.142Z,88.62
2024-02-05T09:12:36.687Z,88.00
2024-02-05T09:13:35.696Z,88.00
2024-02-05T09:14:35.694Z,87.59
2024-02-05T09:15:35.686Z,87.59
2024-02-05T09:16:35.688Z,87.49
2024-02-05T09:17:35.665Z,87.49
2024-02-05T09:18:35.742Z,87.59
2024-02-05T09:19:35.694Z,87.79
2024-02-05T09:20:35.582Z,87.90
2024-02-05T09:21:35.584Z,88.00
2024-02-05T09:22:35.810Z,88.00
2024-02-05T09:23:35.538Z,88.10
2024-02-05T09:24:35.537Z,88.20
2024-02-05T09:25:35.609Z,87.79
2024-02-05T09:26:35.514Z,87.70
2024-02-05T09:27:35.492Z,87.70
2024-02-05T09:28:35.506Z,88.00
2024-02-05T09:29:35.483Z,88.41
2024-02-05T09:30:35.483Z,88.51
2024-02-05T09:31:35.517Z,88.10
2024-02-05T09:32:35.451Z,87.79
2024-02-05T09:33:35.416Z,88.00
2024-02-05T09:34:35.493Z,87.79
2024-02-05T09:35:35.543Z,87.59
2024-02-05T09:36:35.372Z,87.49
2024-02-05T09:37:35.440Z,87.24
2024-02-05T09:38:35.385Z,87.24
2024-02-05T09:39:35.317Z,87.35
2024-02-05T09:40:35.383Z,87.45
2024-02-05T09:41:35.308Z,87.35
2024-02-05T09:42:36.025Z,87.04
2024-02-05T09:43:43.267Z,87.04
2024-02-05T09:44:45.489Z,87.14
2024-02-05T09:45:44.152Z,86.94
2024-02-05T09:46:35.252Z,87.14
2024-02-05T09:47:35.274Z,87.14
2024-02-05T09:49:35.296Z,87.24
2024-02-05T09:50:35.318Z,87.55
2024-02-05T09:51:35.256Z,87.65
2024-02-05T09:52:35.274Z,87.35
2024-02-05T09:53:35.231Z,87.55
2024-02-05T09:54:35.195Z,86.73
2024-02-05T09:55:35.260Z,86.83
2024-02-05T09:56:36.048Z,86.73
2024-02-05T09:57:35.148Z,86.43
2024-02-05T09:58:35.104Z,86.59
2024-02-05T09:59:35.152Z,86.79
2024-02-05T10:00:35.118Z,86.59
2024-02-05T10:01:35.286Z,86.18
2024-02-05T10:02:35.075Z,86.08
2024-02-05T10:03:35.072Z,86.18
2024-02-05T10:04:35.093Z,86.08
2024-02-05T10:05:35.002Z,85.88
2024-02-05T10:06:35.194Z,86.08
2024-02-05T10:07:35.140Z,85.97
2024-02-05T10:08:34.981Z,85.36
2024-02-05T10:09:34.949Z,85.57
2024-02-05T10:10:35.038Z,85.77
2024-02-05T10:11:35.002Z,85.67
2024-02-05T10:12:34.922Z,85.26
2024-02-05T10:13:34.955Z,85.67
2024-02-05T10:14:34.917Z,85.57
2024-02-05T10:15:34.893Z,85.88
2024-02-05T10:16:34.931Z,85.67
2024-02-05T10:17:34.936Z,85.57
2024-02-05T10:18:35.009Z,85.47
2024-02-05T10:19:34.932Z,85.47
2024-02-05T10:20:34.796Z,85.47
2024-02-05T10:21:34.790Z,85.53
2024-02-05T10:22:34.856Z,86.04
2024-02-05T10:23:34.791Z,86.35
2024-02-05T10:24:34.766Z,85.73
2024-02-05T10:25:34.989Z,84.91
2024-02-05T10:26:34.784Z,84.71
2024-02-05T10:27:34.695Z,84.91
2024-02-05T10:28:34.769Z,84.71
2024-02-05T10:29:34.697Z,84.91
2024-02-05T10:30:34.722Z,84.50
2024-02-05T10:31:34.881Z,84.71
2024-02-05T10:32:34.839Z,84.50
2024-02-05T10:33:34.739Z,84.00
2024-02-05T10:34:34.800Z,84.00
2024-02-05T10:35:34.707Z,84.26
2024-02-05T10:36:34.614Z,83.85
2024-02-05T10:37:34.684Z,83.65
2024-02-05T10:38:34.575Z,83.65
2024-02-05T10:39:34.579Z,83.85
2024-02-05T10:40:34.576Z,83.65
2024-02-05T10:41:34.534Z,83.75
2024-02-05T10:42:34.516Z,83.44
2024-02-05T10:43:34.588Z,83.65
2024-02-05T10:44:41.045Z,83.65
2024-02-05T10:45:35.658Z,83.44
2024-02-05T10:46:34.649Z,83.85
2024-02-05T10:47:43.141Z,84.01
2024-02-05T10:48:34.568Z,83.71
2024-02-05T10:49:34.579Z,83.92
2024-02-05T10:50:34.424Z,83.71
2024-02-05T10:51:34.412Z,83.51
2024-02-05T10:52:34.534Z,83.00
2024-02-05T10:53:34.429Z,83.00
2024-02-05T10:54:34.394Z,83.00
2024-02-05T10:55:34.439Z,83.10
2024-02-05T10:56:34.385Z,83.20
2024-02-05T10:57:34.325Z,83.51
2024-02-05T10:58:34.378Z,83.30
2024-02-05T10:59:34.292Z,82.89
2024-02-05T11:00:34.264Z,82.93
2024-02-05T11:01:34.337Z,82.63
2024-02-05T11:02:34.282Z,83.14
2024-02-05T11:03:34.237Z,83.34
2024-02-05T11:04:34.348Z,83.75
2024-02-05T11:05:34.268Z,83.40
2024-02-05T11:06:34.390Z,83.20
2024-02-05T11:07:34.347Z,82.89
2024-02-05T11:08:34.207Z,82.59
2024-02-05T11:09:36.655Z,82.49
2024-02-05T11:10:34.207Z,82.08
2024-02-05T11:11:34.133Z,82.32
2024-02-05T11:12:34.131Z,82.73
2024-02-05T11:13:34.103Z,83.00
2024-02-05T11:14:34.106Z,83.51
2024-02-05T11:15:34.163Z,83.61
2024-02-05T11:16:34.149Z,83.71
2024-02-05T11:17:34.210Z,83.10
2024-02-05T11:18:34.038Z,82.96
2024-02-05T11:19:34.434Z,82.86
2024-02-05T11:20:34.029Z,82.45
2024-02-05T11:21:34.015Z,81.94
2024-02-05T11:22:34.096Z,82.55
2024-02-05T11:23:33.960Z,81.94
2024-02-05T11:24:33.973Z,81.94
2024-02-05T11:25:34.016Z,81.94
2024-02-05T11:26:33.956Z,82.21
2024-02-05T11:27:33.981Z,82.41
2024-02-05T11:28:34.073Z,81.49
2024-02-05T11:29:33.905Z,81.49
2024-02-05T11:30:33.896Z,81.29
2024-02-05T11:31:33.959Z,80.47
2024-02-05T11:32:33.955Z,80.88
2024-02-05T11:33:33.836Z,80.57
2024-02-05T11:34:34.041Z,80.47
2024-02-05T11:35:34.009Z,80.57
2024-02-05T11:36:33.831Z,79.96
2024-02-05T11:37:33.917Z,80.57
2024-02-05T11:38:33.785Z,80.88
2024-02-05T11:39:33.791Z,80.47
2024-02-05T11:40:34.560Z,80.57
2024-02-05T11:41:33.773Z,80.68
2024-02-05T11:42:33.734Z,80.68
2024-02-05T11:43:33.793Z,80.88
2024-02-05T11:44:33.701Z,80.47
2024-02-05T11:45:33.689Z,80.27
2024-02-05T11:46:33.754Z,80.16
2024-02-05T11:47:33.710Z,80.07
2024-02-05T11:48:33.896Z,79.66
2024-02-05T11:49:33.901Z,79.52
2024-02-05T11:50:33.614Z,79.75
2024-02-05T11:51:33.637Z,80.07
2024-02-05T11:52:33.628Z,79.55
2024-02-05T11:53:33.574Z,79.75
2024-02-05T11:54:33.557Z,79.55
2024-02-05T11:55:33.587Z,80.07
2024-02-05T11:56:34.314Z,80.37
2024-02-05T11:58:30.104Z,80.37
2024-02-05T11:59:30.036Z,81.29
2024-02-05T12:00:30.042Z,80.68
2024-02-05T12:01:30.093Z,80.51
2024-02-05T12:02:30.012Z,80.51
2024-02-05T12:04:38.458Z,80.61
2024-02-05T12:05:38.348Z,80.20
2024-02-05T12:06:38.325Z,80.82
2024-02-05T12:07:38.417Z,80.61
2024-02-05T12:08:38.275Z,80.30
2024-02-05T12:09:38.235Z,80.41
2024-02-05T12:10:38.256Z,80.91
2024-02-05T12:11:38.186Z,81.43
2024-02-05T12:12:38.207Z,81.12
2024-02-05T12:13:38.168Z,81.02
2024-02-05T12:14:38.168Z,80.78
2024-02-05T12:15:38.161Z,81.49
2024-02-05T12:16:38.173Z,81.18
2024-02-05T12:17:38.276Z,80.78
2024-02-05T12:18:38.165Z,80.71
2024-02-05T12:19:38.238Z,80.82
2024-02-05T12:20:38.212Z,81.12
2024-02-05T12:21:38.139Z,81.32
2024-02-05T12:22:38.157Z,81.32
2024-02-05T12:23:38.092Z,81.32
2024-02-05T12:24:38.031Z,81.23
2024-02-05T12:25:42.378Z,81.23
2024-02-05T12:26:39.009Z,80.91
2024-02-05T12:27:38.007Z,81.02
2024-02-05T12:28:38.044Z,80.71
2024-02-05T12:29:37.962Z,80.20
2024-02-05T12:30:37.992Z,80.41
2024-02-05T12:31:38.078Z,80.30
2024-02-05T12:32:44.677Z,80.20
2024-02-05T12:33:39.098Z,80.41
2024-02-05T12:34:38.211Z,80.65
2024-02-05T12:35:37.924Z,80.61
2024-02-05T12:36:38.278Z,80.71
2024-02-05T12:37:37.879Z,80.82
2024-02-05T12:38:37.860Z,80.71
2024-02-05T12:39:37.903Z,80.61
2024-02-05T12:40:37.909Z,80.00
2024-02-05T12:41:37.851Z,80.20
2024-02-05T12:42:37.846Z,80.10
2024-02-05T12:43:37.854Z,79.80
2024-02-05T12:44:41.034Z,80.20
2024-02-05T12:45:38.783Z,79.69
2024-02-05T12:46:37.884Z,79.83
2024-02-05T12:47:37.787Z,80.24
2024-02-05T12:48:37.801Z,79.83
2024-02-05T12:49:37.855Z,79.63
2024-02-05T12:50:37.705Z,79.73
2024-02-05T12:51:37.690Z,80.44
2024-02-05T12:52:37.676Z,80.44
2024-02-05T12:53:37.656Z,80.24
2024-02-05T12:54:37.667Z,80.18
2024-02-05T12:55:37.682Z,80.07
2024-02-05T12:56:37.657Z,80.38